Time;durP1;ratioP1;P1;durP2;ratioP2;P2;SDS_P1;SDS_P2;PMS_P1;PMS_P2;Temp;Humidity;BMP_temperature;BMP_pressure;BME280_temperature;BME280_humidity;BME280_pressure;Samples;Min_cycle;Max_cycle;Signal;HPM_P1;HPM_P2
2023/09/19 00:01:34;;;;;;;1.20;1.08;;;;;;;20.37;96.19;100519.72;5075027;28;20280;-79
2023/09/19 00:04:02;;;;;;;1.30;1.23;;;;;;;20.38;95.61;100523.25;5074735;28;20204;-78
2023/09/19 00:06:31;;;;;;;1.65;1.00;;;;;;;20.40;95.19;100518.84;5074734;28;20205;-78
2023/09/19 00:09:00;;;;;;;2.17;1.55;;;;;;;20.48;94.88;100516.91;5074949;28;20295;-79
2023/09/19 00:11:27;;;;;;;1.13;0.90;;;;;;;20.26;94.94;100482.19;5074583;28;20222;-79
2023/09/19 00:13:54;;;;;;;1.48;1.00;;;;;;;20.38;94.17;100502.16;5074810;28;20273;-79
2023/09/19 00:16:21;;;;;;;1.15;1.05;;;;;;;20.33;94.42;100504.91;5074505;28;20206;-76
2023/09/19 00:18:48;;;;;;;1.23;0.93;;;;;;;20.42;94.22;100501.22;5074706;28;20214;-77
2023/09/19 00:21:17;;;;;;;1.35;0.90;;;;;;;20.24;94.55;100465.50;5074367;28;20203;-76
2023/09/19 00:23:43;;;;;;;0.90;0.85;;;;;;;20.14;94.45;100469.22;5039386;28;20690;-77
2023/09/19 00:26:10;;;;;;;1.13;1.02;;;;;;;20.26;95.17;100501.44;5074392;28;20210;-77
2023/09/19 00:28:37;;;;;;;1.42;0.90;;;;;;;20.20;95.75;100501.56;5074221;28;20199;-77
2023/09/19 00:31:05;;;;;;;2.20;1.05;;;;;;;20.17;95.56;100491.09;5039091;28;20195;-76
2023/09/19 00:33:31;;;;;;;1.13;1.00;;;;;;;20.01;96.09;100475.59;5074544;28;20206;-76
2023/09/19 00:35:59;;;;;;;1.73;0.93;;;;;;;19.55;95.31;100393.94;5074085;28;20206;-75
2023/09/19 00:38:27;;;;;;;1.50;1.05;;;;;;;20.24;95.45;100487.47;5074156;28;20191;-77
2023/09/19 00:40:56;;;;;;;1.98;1.00;;;;;;;20.30;94.57;100475.13;5073921;28;20231;-78
2023/09/19 00:43:24;;;;;;;1.42;0.90;;;;;;;20.09;95.04;100450.84;5073790;28;20233;-78
2023/09/19 00:45:53;;;;;;;1.45;0.98;;;;;;;20.33;94.28;100480.34;5073749;28;20256;-78
2023/09/19 00:48:20;;;;;;;0.98;0.98;;;;;;;20.32;94.23;100478.59;5074170;28;20202;-78
2023/09/19 00:50:49;;;;;;;1.52;1.15;;;;;;;20.09;94.09;100445.59;5073934;28;20202;-78
2023/09/19 00:53:19;;;;;;;1.23;0.90;;;;;;;20.27;94.69;100483.88;5074065;28;20203;-78
2023/09/19 00:55:49;;;;;;;2.22;1.20;;;;;;;20.18;94.44;100469.16;5073669;28;20602;-76
2023/09/19 00:58:18;;;;;;;1.38;0.90;;;;;;;20.19;95.31;100472.66;5073768;28;20206;-77
2023/09/19 01:00:45;;;;;;;0.90;0.88;;;;;;;20.11;95.75;100485.94;5072449;28;20240;-77
2023/09/19 01:03:13;;;;;;;1.48;0.90;;;;;;;20.08;95.29;100470.19;5073079;28;20229;-79
2023/09/19 01:05:40;;;;;;;2.15;1.05;;;;;;;20.14;95.46;100478.00;5067054;28;20277;-78
2023/09/19 01:08:07;;;;;;;1.92;1.30;;;;;;;20.14;95.06;100472.72;5018091;28;20215;-78
2023/09/19 01:10:34;;;;;;;1.52;1.00;;;;;;;20.11;95.60;100456.09;5054024;28;20225;-77
2023/09/19 01:13:10;;;;;;;2.42;1.13;;;;;;;20.21;94.79;100455.91;5073143;28;20235;-78
2023/09/19 01:15:47;;;;;;;1.08;0.90;;;;;;;20.28;94.86;100456.69;5073708;28;20233;-77
2023/09/19 01:18:22;;;;;;;2.28;1.00;;;;;;;20.25;94.52;100457.59;5073440;28;20246;-77
2023/09/19 01:20:58;;;;;;;1.85;1.05;;;;;;;20.07;95.37;100452.66;5073399;28;20202;-77
2023/09/19 01:23:38;;;;;;;1.58;1.08;;;;;;;20.07;96.50;100467.59;5073051;28;20222;-78
2023/09/19 01:26:30;;;;;;;2.03;1.20;;;;;;;20.07;96.52;100457.94;5055690;28;20206;-77
2023/09/19 01:29:19;;;;;;;2.00;1.13;;;;;;;19.98;96.34;100452.81;5073587;28;20203;-78
2023/09/19 01:31:50;;;;;;;1.92;1.23;;;;;;;20.03;97.14;100461.50;5073605;28;20285;-79
2023/09/19 01:34:18;;;;;;;2.20;1.00;;;;;;;19.90;98.20;100465.25;5073192;28;20202;-78
2023/09/19 01:36:45;;;;;;;1.13;1.02;;;;;;;19.89;98.14;100455.63;5073077;28;20564;-79
2023/09/19 01:39:14;;;;;;;3.45;1.33;;;;;;;19.82;97.93;100446.09;5073178;28;20290;-79
2023/09/19 01:41:52;;;;;;;1.52;1.00;;;;;;;20.01;97.85;100465.06;5072785;28;20207;-75
2023/09/19 01:44:32;;;;;;;3.25;1.55;;;;;;;19.95;98.35;100466.03;5073069;28;20289;-78
2023/09/19 01:47:08;;;;;;;2.88;1.65;;;;;;;20.00;97.27;100464.19;5038691;28;20199;-77
2023/09/19 01:49:46;;;;;;;1.92;1.00;;;;;;;19.96;97.60;100456.38;5072860;28;20217;-78
2023/09/19 01:52:16;;;;;;;2.40;1.42;;;;;;;20.01;99.19;100458.00;5072773;28;20205;-78
2023/09/19 01:54:50;;;;;;;1.20;0.98;;;;;;;20.08;99.58;100459.66;5073128;28;20194;-78
2023/09/19 01:57:24;;;;;;;1.50;0.90;;;;;;;19.84;100.00;100439.03;5072555;28;20202;-77
2023/09/19 01:59:58;;;;;;;2.47;1.38;;;;;;;19.97;100.00;100459.00;5072559;28;20198;-79
2023/09/19 02:02:26;;;;;;;1.92;1.17;;;;;;;19.85;100.00;100445.16;5036855;28;20682;-78
2023/09/19 02:04:56;;;;;;;1.63;1.00;;;;;;;19.90;100.00;100465.25;5072435;28;20206;-78
2023/09/19 02:07:23;;;;;;;1.95;1.13;;;;;;;19.73;100.00;100462.00;5072603;28;20199;-77
2023/09/19 02:09:50;;;;;;;1.00;0.90;;;;;;;19.51;100.00;100460.63;5072010;28;20241;-76
2023/09/19 02:12:17;;;;;;;1.73;1.42;;;;;;;19.57;100.00;100476.31;5071952;28;20202;-78
2023/09/19 02:14:43;;;;;;;2.20;1.10;;;;;;;19.56;100.00;100479.81;5072694;28;20222;-76
2023/09/19 02:17:11;;;;;;;1.50;1.00;;;;;;;19.51;100.00;100487.78;5071704;28;20210;-78
2023/09/19 02:19:40;;;;;;;1.45;0.93;;;;;;;19.38;100.00;100472.16;5072020;28;20203;-76
2023/09/19 02:22:10;;;;;;;1.85;1.08;;;;;;;19.20;100.00;100454.91;5071991;28;20619;-78
2023/09/19 02:24:37;;;;;;;4.55;1.30;;;;;;;19.14;100.00;100453.25;5072035;28;20199;-77
2023/09/19 02:27:05;;;;;;;1.02;0.88;;;;;;;19.30;100.00;100474.91;5071882;28;20211;-77
2023/09/19 02:29:34;;;;;;;1.65;1.00;;;;;;;19.25;100.00;100467.09;5071774;28;20198;-77
2023/09/19 02:32:01;;;;;;;2.25;1.20;;;;;;;19.19;100.00;100475.06;5070663;28;20203;-78
2023/09/19 02:34:28;;;;;;;2.05;1.05;;;;;;;19.05;100.00;100476.16;5071999;28;20651;-77
2023/09/19 02:36:56;;;;;;;1.65;1.00;;;;;;;18.98;100.00;100475.34;5072302;28;20199;-78
2023/09/19 02:39:24;;;;;;;2.08;1.17;;;;;;;18.83;100.00;100480.81;5071957;28;20707;-78
2023/09/19 02:41:51;;;;;;;0.90;0.88;;;;;;;18.82;100.00;100484.31;5072087;28;20202;-78
2023/09/19 02:44:19;;;;;;;1.83;1.00;;;;;;;18.74;100.00;100480.91;5071542;28;20306;-78
2023/09/19 02:46:47;;;;;;;6.72;1.88;;;;;;;18.74;100.00;100475.66;5037277;28;20201;-78
2023/09/19 02:49:14;;;;;;;1.95;1.38;;;;;;;18.63;100.00;100475.78;5071275;28;20201;-76
2023/09/19 02:51:41;;;;;;;1.23;0.95;;;;;;;18.56;100.00;100476.75;5034386;28;20292;-75
2023/09/19 02:54:09;;;;;;;1.25;0.93;;;;;;;18.60;100.00;100482.81;5051469;28;20239;-77
2023/09/19 02:56:37;;;;;;;1.95;1.00;;;;;;;18.46;100.00;100482.06;5057689;28;20701;-76
2023/09/19 02:59:05;;;;;;;1.60;1.00;;;;;;;18.53;100.00;100475.91;5071771;28;20194;-77
2023/09/19 03:01:33;;;;;;;1.05;0.95;;;;;;;18.43;100.00;100471.63;5071785;28;20263;-78
2023/09/19 03:04:00;;;;;;;1.60;1.05;;;;;;;18.39;100.00;100472.53;5071371;28;20226;-77
2023/09/19 03:06:27;;;;;;;1.20;1.10;;;;;;;18.29;100.00;100480.50;5052648;28;20257;-78
2023/09/19 03:08:56;;;;;;;1.50;1.00;;;;;;;18.22;100.00;100478.84;5052281;28;20209;-77
2023/09/19 03:11:24;;;;;;;1.88;1.48;;;;;;;18.28;100.00;100449.88;5035649;28;20481;-77
2023/09/19 03:13:53;;;;;;;1.55;1.10;;;;;;;18.36;100.00;100448.94;5052353;28;20786;-77
2023/09/19 03:16:21;;;;;;;1.90;1.10;;;;;;;18.34;100.00;100465.56;5071127;28;20289;-77
2023/09/19 03:18:48;;;;;;;1.52;1.00;;;;;;;18.28;100.00;100473.50;5071130;28;20230;-77
2023/09/19 03:21:15;;;;;;;1.90;1.50;;;;;;;18.17;100.00;100467.50;5070982;28;20210;-78
2023/09/19 03:23:45;;;;;;;1.40;1.30;;;;;;;18.17;100.00;100469.25;5065494;28;20225;-78
2023/09/19 03:26:12;;;;;;;2.08;1.17;;;;;;;18.14;100.00;100472.78;5070612;28;20194;-78
2023/09/19 03:28:42;;;;;;;1.08;0.98;;;;;;;18.09;100.00;100474.56;5070955;28;20201;-77
2023/09/19 03:31:09;;;;;;;1.35;1.10;;;;;;;17.90;100.00;100467.75;5074534;28;20248;-77
2023/09/19 03:33:37;;;;;;;1.63;1.20;;;;;;;17.84;100.00;100470.41;5073115;28;20701;-78
2023/09/19 03:36:05;;;;;;;1.17;1.00;;;;;;;17.68;100.00;100442.56;5075271;28;20255;-78
2023/09/19 03:38:33;;;;;;;1.70;1.20;;;;;;;17.78;100.00;100452.97;5007031;28;20199;-79
2023/09/19 03:41:00;;;;;;;1.30;1.20;;;;;;;17.82;100.00;100464.31;5074813;28;20277;-78
2023/09/19 03:43:27;;;;;;;1.83;1.10;;;;;;;17.82;100.00;100449.47;5073964;28;20717;-77
2023/09/19 03:45:55;;;;;;;2.92;1.45;;;;;;;17.67;100.00;100409.34;5039693;28;20219;-78
2023/09/19 03:48:22;;;;;;;1.85;1.05;;;;;;;17.83;100.00;100452.94;5074519;28;20280;-77
2023/09/19 03:50:49;;;;;;;2.53;1.48;;;;;;;17.73;100.00;100448.63;5074987;28;20209;-78
2023/09/19 03:53:16;;;;;;;5.82;1.75;;;;;;;17.55;100.00;100433.88;5075275;28;20233;-78
2023/09/19 03:55:45;;;;;;;0.90;0.90;;;;;;;17.81;100.00;100467.81;5075512;28;20210;-77
2023/09/19 03:58:12;;;;;;;3.92;1.90;;;;;;;17.78;100.00;100462.59;5056926;28;20191;-78
2023/09/19 04:00:39;;;;;;;3.30;1.42;;;;;;;17.77;100.00;100472.22;5075059;28;20697;-78
2023/09/19 04:03:07;;;;;;;2.00;1.27;;;;;;;17.83;100.00;100472.19;5074764;28;20254;-76
2023/09/19 04:05:34;;;;;;;1.60;1.23;;;;;;;17.66;100.00;100467.94;5074615;28;20207;-73
2023/09/19 04:08:01;;;;;;;1.75;1.35;;;;;;;17.65;100.00;100474.06;5073874;28;20212;-73
2023/09/19 04:10:28;;;;;;;1.35;1.20;;;;;;;17.62;100.00;100466.25;5055860;28;20221;-73
2023/09/19 04:12:56;;;;;;;1.10;1.00;;;;;;;17.54;100.00;100462.75;5039777;28;20203;-77
2023/09/19 04:15:23;;;;;;;1.30;1.20;;;;;;;17.56;100.00;100472.38;5077631;28;20199;-80
2023/09/19 04:17:50;;;;;;;1.35;1.00;;;;;;;17.61;100.00;100480.22;5077257;28;20230;-78
2023/09/19 04:20:19;;;;;;;1.08;0.98;;;;;;;17.64;100.00;100475.81;5040265;28;20198;-77
2023/09/19 04:22:47;;;;;;;1.35;1.00;;;;;;;17.29;100.00;100425.38;5075146;28;20203;-73
2023/09/19 04:25:14;;;;;;;1.80;1.08;;;;;;;17.48;100.00;100454.94;5074133;28;20750;-74
2023/09/19 04:27:41;;;;;;;1.17;1.05;;;;;;;17.55;100.00;100465.34;5038728;28;20654;-74
2023/09/19 04:30:11;;;;;;;1.55;1.25;;;;;;;17.62;100.00;100474.09;5074138;28;20651;-72
2023/09/19 04:32:39;;;;;;;1.00;1.00;;;;;;;17.17;100.00;100421.06;5074315;28;20282;-73
2023/09/19 04:35:08;;;;;;;0.98;0.90;;;;;;;17.46;100.00;100475.91;5039228;28;20252;-76
2023/09/19 04:37:38;;;;;;;2.17;1.15;;;;;;;17.46;100.00;100475.03;5038885;28;20571;-78
2023/09/19 04:40:12;;;;;;;3.15;1.55;;;;;;;17.68;100.00;100474.06;5038881;28;20299;-79
2023/09/19 04:42:40;;;;;;;1.35;1.00;;;;;;;17.97;100.00;100474.69;5074016;28;20222;-77
2023/09/19 04:45:09;;;;;;;1.27;1.05;;;;;;;18.25;100.00;100470.91;5073586;28;20590;-77
2023/09/19 04:47:38;;;;;;;0.82;0.80;;;;;;;18.09;100.00;100448.31;5073499;28;20191;-78
2023/09/19 04:50:13;;;;;;;2.03;1.45;;;;;;;18.80;100.00;100467.69;5073533;28;20290;-73
2023/09/19 04:52:50;;;;;;;1.10;1.00;;;;;;;18.92;100.00;100475.44;5073531;28;20275;-78
2023/09/19 04:55:19;;;;;;;5.97;1.77;;;;;;;18.89;100.00;100462.34;5053179;28;20198;-76
2023/09/19 04:57:46;;;;;;;1.58;1.05;;;;;;;18.64;100.00;100447.75;5073157;28;20217;-79
2023/09/19 05:00:14;;;;;;;2.38;1.38;;;;;;;18.29;100.00;100462.13;5072997;28;20203;-75
2023/09/19 05:02:42;;;;;;;1.55;1.05;;;;;;;18.18;100.00;100450.88;5052510;28;20199;-78
2023/09/19 05:05:10;;;;;;;1.35;0.88;;;;;;;18.29;100.00;100477.88;5073593;28;20582;-80
2023/09/19 05:07:37;;;;;;;1.65;1.55;;;;;;;17.79;100.00;100373.41;5072833;28;20198;-79
2023/09/19 05:10:07;;;;;;;1.10;1.00;;;;;;;18.15;100.00;100439.53;5073008;28;20202;-77
2023/09/19 05:12:35;;;;;;;2.95;1.60;;;;;;;18.46;100.00;100469.81;5060199;28;20198;-77
2023/09/19 05:15:03;;;;;;;2.15;1.92;;;;;;;18.64;100.00;100476.66;5072950;28;20288;-79
2023/09/19 05:17:30;;;;;;;2.72;1.55;;;;;;;18.71;100.00;100475.69;5073182;28;20202;-76
2023/09/19 05:19:57;;;;;;;2.67;1.30;;;;;;;18.67;100.00;100474.00;5073119;28;20203;-77
2023/09/19 05:22:24;;;;;;;1.13;1.00;;;;;;;18.38;100.00;100444.53;5072986;28;20694;-76
2023/09/19 05:24:52;;;;;;;1.25;0.90;;;;;;;18.28;100.00;100460.38;5072680;28;20223;-75
2023/09/19 05:27:21;;;;;;;4.13;1.75;;;;;;;18.41;100.00;100465.53;5070421;28;20260;-76
2023/09/19 05:29:50;;;;;;;1.67;1.10;;;;;;;18.38;100.00;100450.66;5061054;28;20235;-76
2023/09/19 05:32:17;;;;;;;1.23;0.98;;;;;;;18.54;100.00;100464.53;5072482;28;20309;-76
2023/09/19 05:34:44;;;;;;;0.80;0.80;;;;;;;18.61;100.00;100469.69;5072878;28;20293;-74
2023/09/19 05:37:11;;;;;;;5.50;2.13;;;;;;;18.82;100.00;100463.31;5071794;28;20210;-77
2023/09/19 05:39:38;;;;;;;1.75;1.63;;;;;;;18.96;100.00;100463.13;5071319;28;20206;-77
2023/09/19 05:42:05;;;;;;;2.95;2.20;;;;;;;19.15;100.00;100468.13;5042389;28;20226;-77
2023/09/19 05:44:33;;;;;;;2.88;1.25;;;;;;;19.19;100.00;100475.06;5071514;28;20214;-76
2023/09/19 05:47:00;;;;;;;2.47;1.20;;;;;;;18.88;100.00;100467.59;5072356;28;20202;-75
2023/09/19 05:49:27;;;;;;;1.13;1.02;;;;;;;18.87;100.00;100461.47;5071918;28;20206;-77
2023/09/19 05:51:56;;;;;;;2.38;1.15;;;;;;;18.75;100.00;100445.88;5072036;28;20633;-77
2023/09/19 05:54:23;;;;;;;1.33;1.13;;;;;;;19.02;100.00;100461.28;5072118;28;20234;-74
2023/09/19 05:56:52;;;;;;;1.92;1.02;;;;;;;18.86;100.00;100454.50;5072397;28;20207;-77
2023/09/19 05:59:19;;;;;;;6.63;1.80;;;;;;;18.75;100.00;100451.13;5071908;28;20199;-77
2023/09/19 06:01:47;;;;;;;1.10;1.00;;;;;;;18.78;100.00;100451.97;5066416;28;20579;-76
2023/09/19 06:04:14;;;;;;;1.00;0.90;;;;;;;18.86;100.00;100454.50;5063191;28;20606;-77
2023/09/19 06:06:41;;;;;;;1.77;1.67;;;;;;;18.84;100.00;100448.38;5068990;28;20199;-78
2023/09/19 06:09:08;;;;;;;4.80;1.52;;;;;;;18.73;100.00;100447.63;5061345;28;20191;-76
2023/09/19 06:11:35;;;;;;;2.40;1.50;;;;;;;18.87;100.00;100453.59;5071916;28;20213;-76
2023/09/19 06:14:02;;;;;;;1.02;0.93;;;;;;;18.99;100.00;100461.31;5072120;28;20277;-76
2023/09/19 06:16:29;;;;;;;2.38;1.20;;;;;;;19.11;100.00;100453.28;5071947;28;20682;-75
2023/09/19 06:18:59;;;;;;;1.00;1.00;;;;;;;19.26;100.00;100442.53;5071708;28;20226;-76
2023/09/19 06:21:26;;;;;;;1.33;1.23;;;;;;;19.40;100.00;100452.00;5071714;28;20607;-77
2023/09/19 06:23:54;;;;;;;2.13;1.10;;;;;;;19.44;100.00;100423.00;5071686;28;20634;-78
2023/09/19 06:26:21;;;;;;;1.25;1.00;;;;;;;19.67;100.00;100447.19;5071615;28;20233;-76
2023/09/19 06:28:47;;;;;;;4.10;1.35;;;;;;;19.89;100.00;100441.59;5071778;28;20331;-73
2023/09/19 06:31:14;;;;;;;1.55;0.90;;;;;;;20.06;100.00;100395.63;5071736;28;20195;-73
2023/09/19 06:33:43;;;;;;;1.20;0.90;;;;;;;20.55;100.00;100421.91;5071591;28;20643;-74
2023/09/19 06:36:11;;;;;;;1.38;0.90;;;;;;;21.07;100.00;100434.00;5071465;28;20598;-73
2023/09/19 06:38:38;;;;;;;2.30;1.52;;;;;;;21.11;100.00;100435.72;5071455;28;20199;-73
2023/09/19 06:41:07;;;;;;;2.35;1.38;;;;;;;21.34;100.00;100443.06;5071376;28;20631;-74
2023/09/19 06:43:33;;;;;;;1.65;1.02;;;;;;;;;;5071316;28;20230;-73
2023/09/19 06:46:00;;;;;;;1.08;0.98;;;;;;;21.47;100.00;100442.78;5071723;28;20252;-74
2023/09/19 06:48:29;;;;;;;1.30;1.20;;;;;;;21.32;100.00;100407.97;5071669;28;20659;-74
2023/09/19 06:50:56;;;;;;;1.58;1.10;;;;;;;21.71;100.00;100442.19;5071525;28;20226;-74
2023/09/19 06:53:24;;;;;;;1.45;1.00;;;;;;;21.74;100.00;100443.88;5036278;28;20235;-74
2023/09/19 06:55:51;;;;;;;1.70;1.02;;;;;;;21.25;100.00;100431.84;5071351;28;20586;-75
2023/09/19 06:58:19;;;;;;;1.45;1.40;;;;;;;21.18;100.00;100432.03;5071751;28;20210;-74
2023/09/19 07:00:45;;;;;;;1.40;1.13;;;;;;;21.00;100.00;100428.00;5071484;28;20205;-74
2023/09/19 07:03:16;;;;;;;1.80;1.63;;;;;;;21.32;100.00;100419.38;5071367;28;20206;-70
2023/09/19 07:05:43;;;;;;;1.70;1.38;;;;;;;21.41;100.00;100436.75;5071430;28;20226;-75
2023/09/19 07:08:12;;;;;;;2.60;1.20;;;;;;;21.65;100.00;100428.28;5071282;28;20256;-74
2023/09/19 07:10:41;;;;;;;1.05;0.95;;;;;;;21.83;100.00;100440.97;5071539;28;20278;-74
2023/09/19 07:13:10;;;;;;;2.47;1.25;;;;;;;22.00;100.00;100424.75;5071406;28;20242;-75
2023/09/19 07:15:39;;;;;;;2.63;1.23;;;;;;;21.97;100.00;100425.72;5071174;28;20599;-74
2023/09/19 07:18:10;;;;;;;2.60;1.30;;;;;;;22.22;100.00;100421.50;5071147;28;20202;-74
2023/09/19 07:20:38;;;;;;;1.60;1.33;;;;;;;22.13;100.00;100413.81;5052462;28;20195;-75
2023/09/19 07:23:06;;;;;;;3.08;1.42;;;;;;;22.20;100.00;100411.88;5071478;28;20199;-74
2023/09/19 07:25:32;;;;;;;1.27;1.10;;;;;;;22.30;100.00;100413.38;5071352;28;20321;-74
2023/09/19 07:28:01;;;;;;;2.90;1.20;;;;;;;22.62;99.99;100409.81;5052610;28;20579;-74
2023/09/19 07:30:28;;;;;;;1.30;1.00;;;;;;;22.46;100.00;100376.81;5071101;28;20199;-74
2023/09/19 07:32:55;;;;;;;3.80;1.30;;;;;;;22.60;97.39;100399.28;5071034;28;20202;-74
2023/09/19 07:35:22;;;;;;;2.78;1.02;;;;;;;22.54;97.51;100401.25;5070967;28;20211;-74
2023/09/19 07:37:51;;;;;;;1.08;0.90;;;;;;;22.62;95.24;100404.53;5071074;28;20202;-74
2023/09/19 07:40:18;;;;;;;2.15;1.00;;;;;;;22.84;95.34;100402.16;5070982;28;20195;-76
2023/09/19 07:42:46;;;;;;;1.65;1.10;;;;;;;22.88;90.62;100412.59;5070987;28;20194;-74
2023/09/19 07:45:16;;;;;;;1.83;1.00;;;;;;;22.69;91.95;100364.69;5070811;28;20226;-75
2023/09/19 07:47:45;;;;;;;1.75;1.40;;;;;;;23.00;91.29;100384.91;5070849;28;20195;-75
2023/09/19 07:50:12;;;;;;;2.60;1.15;;;;;;;22.92;90.83;100377.22;5070936;28;20248;-76
2023/09/19 07:52:39;;;;;;;2.90;1.30;;;;;;;23.02;86.82;100357.50;5070996;28;20202;-76
2023/09/19 07:55:09;;;;;;;1.27;0.88;;;;;;;23.30;87.05;100396.28;5070915;28;20223;-76
2023/09/19 07:57:36;;;;;;;1.50;1.17;;;;;;;23.42;85.55;100357.13;5070575;28;20205;-76
2023/09/19 08:00:04;;;;;;;1.48;1.10;;;;;;;23.74;84.96;100393.09;5070722;28;20199;-75
2023/09/19 08:02:35;;;;;;;2.00;1.52;;;;;;;23.76;79.83;100372.72;5070709;28;20676;-75
2023/09/19 08:05:06;;;;;;;1.77;1.20;;;;;;;23.92;79.04;100389.81;5070688;28;20226;-76
2023/09/19 08:07:33;;;;;;;1.20;1.10;;;;;;;24.23;78.12;100378.16;5070613;28;20210;-76
2023/09/19 08:10:00;;;;;;;1.85;1.25;;;;;;;24.40;78.03;100387.22;5070887;28;20199;-75
2023/09/19 08:12:27;;;;;;;1.25;1.02;;;;;;;24.46;72.78;100387.03;5035834;28;20210;-75
2023/09/19 08:14:55;;;;;;;0.93;0.90;;;;;;;24.26;72.83;100383.38;5071132;28;20321;-76
2023/09/19 08:17:22;;;;;;;1.38;1.00;;;;;;;24.26;72.41;100388.69;5074115;28;20199;-76
2023/09/19 08:19:52;;;;;;;1.13;0.88;;;;;;;24.17;72.85;100390.72;5074354;28;20297;-76
2023/09/19 08:22:19;;;;;;;1.70;1.02;;;;;;;24.35;71.87;100383.03;5074123;28;20299;-76
2023/09/19 08:24:47;;;;;;;1.05;0.90;;;;;;;24.38;70.68;100381.13;5069420;28;20245;-76
2023/09/19 08:27:14;;;;;;;0.80;0.80;;;;;;;24.42;69.84;100389.84;5053867;28;20199;-74
2023/09/19 08:29:42;;;;;;;1.35;1.10;;;;;;;24.61;69.25;100385.59;5071313;28;20211;-74
2023/09/19 08:32:09;;;;;;;1.52;0.95;;;;;;;24.63;66.45;100370.47;5073801;28;20261;-75
2023/09/19 08:34:38;;;;;;;0.90;0.82;;;;;;;24.63;67.38;100383.72;5059570;28;20205;-75
2023/09/19 08:37:07;;;;;;;1.65;1.55;;;;;;;24.56;66.30;100377.78;5073667;28;20207;-75
2023/09/19 08:39:36;;;;;;;1.90;1.05;;;;;;;24.44;65.17;100377.38;5073380;28;20202;-73
2023/09/19 08:42:04;;;;;;;3.95;1.52;;;;;;;24.54;66.53;100370.84;5073487;28;20199;-75
2023/09/19 08:44:31;;;;;;;0.95;0.95;;;;;;;24.62;66.08;100360.78;5073174;28;20714;-75
2023/09/19 08:47:07;;;;;;;2.53;1.35;;;;;;;24.77;64.08;100365.50;5073554;28;20199;-74
2023/09/19 08:49:40;;;;;;;1.52;1.02;;;;;;;24.75;63.33;100354.09;5073197;28;20203;-75
2023/09/19 08:52:17;;;;;;;4.05;1.35;;;;;;;24.82;61.96;100362.69;5073426;28;20213;-75
2023/09/19 08:54:46;;;;;;;1.95;1.33;;;;;;;24.89;61.89;100354.47;5073118;28;20203;-75
2023/09/19 08:57:21;;;;;;;1.13;0.90;;;;;;;25.11;60.56;100357.13;5064142;28;20203;-75
2023/09/19 08:59:49;;;;;;;1.92;1.10;;;;;;;25.16;57.74;100356.00;5055612;28;20228;-74
2023/09/19 09:02:18;;;;;;;2.55;1.08;;;;;;;25.25;57.78;100351.25;5073290;28;20209;-75
2023/09/19 09:04:46;;;;;;;3.33;1.33;;;;;;;25.32;56.26;100326.19;5072793;28;20238;-75
2023/09/19 09:07:16;;;;;;;1.40;0.98;;;;;;;25.09;56.22;100335.94;5073296;28;20203;-75
2023/09/19 09:09:43;;;;;;;1.65;1.10;;;;;;;25.11;58.03;100328.78;5073069;28;20207;-74
2023/09/19 09:12:13;;;;;;;0.82;0.82;;;;;;;25.41;57.75;100344.38;5059223;28;20209;-75
2023/09/19 09:14:41;;;;;;;4.03;2.13;;;;;;;25.38;55.57;100352.47;5072964;28;20253;-75
2023/09/19 09:17:08;;;;;;;2.35;1.15;;;;;;;25.44;54.76;100353.06;5068099;28;20659;-74
2023/09/19 09:19:35;;;;;;;2.60;1.20;;;;;;;25.63;52.25;100332.81;5064012;28;20733;-74
2023/09/19 09:22:09;;;;;;;1.75;1.13;;;;;;;26.05;51.08;100324.75;5072978;28;20238;-77
2023/09/19 09:24:39;;;;;;;1.65;1.17;;;;;;;26.39;49.40;100339.25;5072811;28;20229;-76
2023/09/19 09:27:08;;;;;;;1.98;1.42;;;;;;;26.36;49.00;100353.50;5071779;28;20207;-77
2023/09/19 09:29:44;;;;;;;1.75;1.10;;;;;;;26.18;49.76;100348.19;5072951;28;20202;-76
2023/09/19 09:32:21;;;;;;;3.80;1.45;;;;;;;26.13;48.99;100322.63;5072721;28;20233;-78
2023/09/19 09:34:51;;;;;;;2.05;1.10;;;;;;;26.33;48.37;100350.13;5072989;28;20211;-78
2023/09/19 09:37:20;;;;;;;0.90;0.90;;;;;;;26.44;48.00;100347.84;5072882;28;20202;-78
2023/09/19 09:39:58;;;;;;;1.98;1.20;;;;;;;26.55;47.37;100340.25;5072678;28;20206;-77
2023/09/19 09:42:35;;;;;;;1.42;1.00;;;;;;;26.81;47.66;100347.00;5072443;28;20202;-79
2023/09/19 09:45:17;;;;;;;1.65;1.00;;;;;;;26.92;44.84;100350.94;5072234;28;20223;-76
2023/09/19 09:47:55;;;;;;;1.95;1.27;;;;;;;27.26;46.57;100360.78;5072278;28;20233;-77
2023/09/19 09:50:38;;;;;;;1.30;0.98;;;;;;;27.58;46.33;100356.56;5072360;28;20211;-76
2023/09/19 09:53:07;;;;;;;1.70;1.13;;;;;;;27.72;42.96;100348.72;5072113;28;20592;-76
2023/09/19 09:55:59;;;;;;;1.10;1.10;;;;;;;27.91;42.22;100344.16;5072169;28;20207;-76
2023/09/19 09:58:29;;;;;;;1.13;1.02;;;;;;;27.76;40.98;100339.63;5072113;28;20234;-76
2023/09/19 10:00:57;;;;;;;1.30;0.93;;;;;;;27.97;41.90;100349.16;5071890;28;20238;-76
2023/09/19 10:03:33;;;;;;;0.93;0.93;;;;;;;27.81;43.98;100340.25;5072076;28;20215;-75
2023/09/19 10:06:11;;;;;;;2.55;1.20;;;;;;;27.88;44.91;100339.00;5055777;28;20234;-75
2023/09/19 10:08:38;;;;;;;1.23;1.13;;;;;;;28.33;43.96;100340.19;5071871;28;20594;-75
2023/09/19 10:11:19;;;;;;;1.10;1.00;;;;;;;27.78;46.08;100343.09;5071889;28;20203;-75
2023/09/19 10:13:47;;;;;;;1.48;1.38;;;;;;;27.61;44.77;100348.44;5059676;28;20234;-73
2023/09/19 10:16:19;;;;;;;1.38;0.90;;;;;;;27.54;44.46;100339.00;5071772;28;20261;-72
2023/09/19 10:18:52;;;;;;;1.98;1.02;;;;;;;28.01;44.63;100339.22;5064437;28;20709;-74
2023/09/19 10:21:22;;;;;;;1.40;1.30;;;;;;;28.39;43.85;100339.88;5051788;28;20218;-73
2023/09/19 10:23:52;;;;;;;1.40;1.20;;;;;;;28.50;42.90;100333.00;5037264;28;20217;-74
2023/09/19 10:26:23;;;;;;;1.35;1.10;;;;;;;28.25;42.57;100339.78;5071618;28;20222;-75
2023/09/19 10:28:51;;;;;;;1.10;1.10;;;;;;;28.02;43.15;100319.63;5049354;28;20203;-74
2023/09/19 10:31:24;;;;;;;1.05;1.05;;;;;;;27.97;42.87;100338.50;5071608;28;20206;-75
2023/09/19 10:33:51;;;;;;;0.90;0.90;;;;;;;28.20;43.24;100344.47;5057210;28;20208;-74
2023/09/19 10:36:19;;;;;;;0.85;0.85;;;;;;;27.82;43.29;100344.66;5052912;28;20674;-74
2023/09/19 10:38:48;;;;;;;1.27;1.02;;;;;;;27.80;43.03;100311.00;5070948;28;20582;-75
2023/09/19 10:41:20;;;;;;;1.00;1.00;;;;;;;27.85;42.09;100341.84;5057811;28;20205;-76
2023/09/19 10:43:49;;;;;;;1.45;1.10;;;;;;;27.68;41.71;100330.31;5071278;28;20210;-76
2023/09/19 10:46:16;;;;;;;1.02;0.90;;;;;;;28.02;41.75;100333.81;5071084;28;20218;-76
2023/09/19 10:48:48;;;;;;;1.20;1.10;;;;;;;27.84;42.23;100340.09;5071239;28;20209;-76
2023/09/19 10:51:19;;;;;;;0.80;0.80;;;;;;;27.56;42.67;100315.81;5071234;28;20203;-75
2023/09/19 10:53:53;;;;;;;0.82;0.80;;;;;;;27.57;42.17;100333.53;5004281;28;20210;-76
2023/09/19 10:56:32;;;;;;;3.60;1.25;;;;;;;27.79;41.86;100327.97;5045002;28;20264;-78
2023/09/19 10:59:10;;;;;;;0.90;0.90;;;;;;;27.99;40.28;100325.97;5071456;28;20206;-76
2023/09/19 11:01:47;;;;;;;1.02;1.02;;;;;;;28.21;41.12;100335.53;5071881;28;20198;-77
2023/09/19 11:04:28;;;;;;;1.33;1.23;;;;;;;28.32;39.43;100323.34;5077611;28;20209;-77
2023/09/19 11:07:08;;;;;;;1.45;1.05;;;;;;;28.39;39.83;100321.22;5092321;28;20291;-78
2023/09/19 11:09:47;;;;;;;0.90;0.90;;;;;;;28.38;39.60;100311.47;5091631;28;20278;-77
2023/09/19 11:12:14;;;;;;;1.63;1.00;;;;;;;28.81;39.40;100321.53;5056040;28;20281;-76
2023/09/19 11:14:44;;;;;;;1.42;1.02;;;;;;;28.60;38.07;100320.03;5092090;28;20261;-78
2023/09/19 11:17:46;;;;;;;1.25;1.13;;;;;;;28.94;38.10;100317.22;5091975;28;20198;-78
2023/09/19 11:23:26;;;;;;;4.53;1.70;;;;;;;28.83;37.46;100314.28;5002201;28;20204;-78
2023/09/19 11:25:54;;;;;;;1.52;1.05;;;;;;;28.90;38.82;100313.00;5029747;28;20223;-78
2023/09/19 11:28:35;;;;;;;1.20;1.10;;;;;;;28.95;37.31;100297.59;5029669;28;20207;-78
2023/09/19 11:31:54;;;;;;;1.67;1.10;;;;;;;28.97;36.81;100310.81;5029439;28;20204;-79
2023/09/19 11:34:46;;;;;;;1.15;0.90;;;;;;;29.19;36.28;100305.97;5029730;28;20715;-79
2023/09/19 11:38:08;;;;;;;0.85;0.85;;;;;;;29.09;36.51;100298.59;5030137;28;20773;-79